createdAt,value
2023-02-05T00:00:34.751Z,3.15
2023-02-05T00:03:03.524Z,3.67
2023-02-05T00:05:32.518Z,2.97
2023-02-05T00:08:02.200Z,3.38
2023-02-05T00:10:33.859Z,3.63
2023-02-05T00:13:02.530Z,3.55
2023-02-05T00:15:31.578Z,3.88
2023-02-05T00:18:02.003Z,3.50
2023-02-05T00:20:30.601Z,3.38
2023-02-05T00:22:59.421Z,3.75
2023-02-05T00:25:28.163Z,3.60
2023-02-05T00:27:59.789Z,3.40
2023-02-05T00:30:28.522Z,3.28
2023-02-05T00:32:57.209Z,3.97
2023-02-05T00:35:27.507Z,2.88
2023-02-05T00:37:56.424Z,2.97
2023-02-05T00:40:25.015Z,2.53
2023-02-05T00:42:53.638Z,2.42
2023-02-05T00:45:22.468Z,2.28
2023-02-05T00:47:51.074Z,2.88
2023-02-05T00:50:19.792Z,2.50
2023-02-05T00:52:49.942Z,2.88
2023-02-05T00:55:18.747Z,2.22
2023-02-05T00:57:49.183Z,2.22
2023-02-05T01:00:18.476Z,2.53
2023-02-05T01:02:47.454Z,2.40
2023-02-05T01:05:16.620Z,5.10
2023-02-05T01:07:45.256Z,3.05
2023-02-05T01:10:15.295Z,2.75
2023-02-05T01:12:44.038Z,2.65
2023-02-05T01:15:14.440Z,2.20
2023-02-05T01:17:43.579Z,2.30
2023-02-05T01:20:13.250Z,1.95
2023-02-05T01:22:42.078Z,2.15
2023-02-05T01:25:11.238Z,2.30
2023-02-05T01:27:41.267Z,1.90
2023-02-05T01:30:11.801Z,1.70
2023-02-05T01:32:40.745Z,1.60
2023-02-05T01:35:10.019Z,1.90
2023-02-05T01:37:38.623Z,2.35
2023-02-05T01:40:07.977Z,1.77
2023-02-05T01:42:36.705Z,1.95
2023-02-05T01:45:25.095Z,1.48
2023-02-05T01:47:56.070Z,1.60
2023-02-05T01:50:27.147Z,1.52
2023-02-05T01:52:56.322Z,1.50
2023-02-05T01:55:26.019Z,1.92
2023-02-05T01:57:55.158Z,1.38
2023-02-05T02:00:24.486Z,1.50
2023-02-05T02:02:53.449Z,1.50
2023-02-05T02:05:23.646Z,1.52
2023-02-05T02:07:52.385Z,1.42
2023-02-05T02:10:21.290Z,2.40
2023-02-05T02:12:50.743Z,1.60
2023-02-05T02:15:21.017Z,1.58
2023-02-05T02:17:52.021Z,1.73
2023-02-05T02:20:21.892Z,1.33
2023-02-05T02:23:00.099Z,1.33
2023-02-05T02:25:46.598Z,1.63
2023-02-05T02:28:19.333Z,1.20
2023-02-05T02:30:52.664Z,1.63
2023-02-05T02:33:25.416Z,1.77
2023-02-05T02:36:00.823Z,1.27
2023-02-05T02:38:32.117Z,1.50
2023-02-05T02:41:05.394Z,2.70
2023-02-05T02:43:38.924Z,2.42
2023-02-05T02:46:09.409Z,1.67
2023-02-05T02:48:40.039Z,1.50
2023-02-05T02:51:10.100Z,1.20
2023-02-05T02:53:40.321Z,1.73
2023-02-05T02:56:10.097Z,1.10
2023-02-05T02:58:42.122Z,1.40
2023-02-05T03:01:12.048Z,1.30
2023-02-05T03:03:44.743Z,1.13
2023-02-05T03:06:14.563Z,1.30
2023-02-05T03:08:50.266Z,1.30
2023-02-05T03:11:19.532Z,1.58
2023-02-05T03:13:50.029Z,1.60
2023-02-05T03:16:24.476Z,1.20
2023-02-05T03:18:54.501Z,1.00
2023-02-05T03:21:26.221Z,1.52
2023-02-05T03:23:54.892Z,1.40
2023-02-05T03:26:27.232Z,1.10
2023-02-05T03:29:06.769Z,1.27
2023-02-05T03:31:41.317Z,0.93
2023-02-05T03:34:19.658Z,1.23
2023-02-05T03:36:56.843Z,0.80
2023-02-05T03:39:29.063Z,0.77
2023-02-05T03:42:06.406Z,1.10
2023-02-05T03:44:46.624Z,0.90
2023-02-05T03:47:21.286Z,1.00
2023-02-05T03:49:54.244Z,0.90
2023-02-05T03:52:26.227Z,1.23
2023-02-05T03:54:59.242Z,1.00
2023-02-05T03:57:37.103Z,0.98
2023-02-05T04:00:08.240Z,1.20
2023-02-05T04:02:42.844Z,0.88
2023-02-05T04:05:14.977Z,0.88
2023-02-05T04:07:45.327Z,0.60
2023-02-05T04:10:14.749Z,0.70
2023-02-05T04:12:45.952Z,0.88
2023-02-05T04:15:16.162Z,0.90
2023-02-05T04:17:48.931Z,1.10
2023-02-05T04:20:17.701Z,0.80
2023-02-05T04:22:46.531Z,0.77
2023-02-05T04:25:15.381Z,0.80
2023-02-05T04:27:45.139Z,1.00
2023-02-05T04:30:15.898Z,0.80
2023-02-05T04:32:46.907Z,0.70
2023-02-05T04:35:18.704Z,0.80
2023-02-05T04:37:49.514Z,0.95
2023-02-05T04:40:19.471Z,0.70
2023-02-05T04:42:48.210Z,0.88
2023-02-05T04:45:18.809Z,0.85
2023-02-05T04:47:47.521Z,0.70
2023-02-05T04:50:16.285Z,0.75
2023-02-05T04:52:44.849Z,0.80
2023-02-05T04:55:13.533Z,0.80
2023-02-05T04:57:42.299Z,0.80
2023-02-05T05:00:11.663Z,0.70
2023-02-05T05:02:41.704Z,0.65
2023-02-05T05:05:11.962Z,0.65
2023-02-05T05:07:40.671Z,0.85
2023-02-05T05:10:09.841Z,0.68
2023-02-05T05:12:38.949Z,0.70
2023-02-05T05:15:10.441Z,0.90
2023-02-05T05:17:39.201Z,0.82
2023-02-05T05:20:09.712Z,0.80
2023-02-05T05:22:38.445Z,1.05
2023-02-05T05:25:07.366Z,0.70
2023-02-05T05:27:35.981Z,0.80
2023-02-05T05:30:04.803Z,0.80
2023-02-05T05:32:33.852Z,0.90
2023-02-05T05:35:02.623Z,0.70
2023-02-05T05:37:41.721Z,0.70
2023-02-05T05:40:29.379Z,0.70
2023-02-05T05:43:15.659Z,0.80
2023-02-05T05:45:44.368Z,0.63
2023-02-05T05:48:13.151Z,0.70
2023-02-05T05:50:41.826Z,0.80
2023-02-05T05:53:11.950Z,0.73
2023-02-05T05:55:40.682Z,1.00
2023-02-05T05:58:11.566Z,0.70
2023-02-05T06:00:40.630Z,0.80
2023-02-05T06:03:09.639Z,0.60
2023-02-05T06:05:38.420Z,0.70
2023-02-05T06:08:07.653Z,0.80
2023-02-05T06:10:37.676Z,0.70
2023-02-05T06:13:06.397Z,0.75
2023-02-05T06:15:35.435Z,0.57
2023-02-05T06:18:04.395Z,0.80
2023-02-05T06:20:32.978Z,0.60
2023-02-05T06:23:03.482Z,0.75
2023-02-05T06:25:32.481Z,0.88
2023-02-05T06:28:02.909Z,0.63
2023-02-05T06:30:31.576Z,0.77
2023-02-05T06:33:00.196Z,0.93
2023-02-05T06:35:28.851Z,0.70
2023-02-05T06:37:57.683Z,0.68
2023-02-05T06:40:28.122Z,0.80
2023-02-05T06:42:57.287Z,0.60
2023-02-05T06:45:27.361Z,0.68
2023-02-05T06:47:56.212Z,0.80
2023-02-05T06:50:25.139Z,0.82
2023-02-05T06:52:53.843Z,0.82
2023-02-05T06:55:29.407Z,0.80
2023-02-05T06:57:58.009Z,0.52
2023-02-05T07:00:32.483Z,0.77
2023-02-05T07:03:01.542Z,0.80
2023-02-05T07:05:30.269Z,1.00
2023-02-05T07:07:59.863Z,0.60
2023-02-05T07:10:28.669Z,0.60
2023-02-05T07:12:57.355Z,0.80
2023-02-05T07:15:26.442Z,0.57
2023-02-05T07:17:57.308Z,0.77
2023-02-05T07:20:25.953Z,0.63
2023-02-05T07:22:54.641Z,0.82
2023-02-05T07:25:23.283Z,0.70
2023-02-05T07:27:52.101Z,0.73
2023-02-05T07:30:20.841Z,0.80
2023-02-05T07:32:49.674Z,0.60
2023-02-05T07:35:19.870Z,0.60
2023-02-05T07:37:48.587Z,0.60
2023-02-05T07:40:17.391Z,0.60
2023-02-05T07:42:46.105Z,0.60
2023-02-05T07:45:15.082Z,0.60
2023-02-05T07:47:43.733Z,0.60
2023-02-05T07:50:12.438Z,0.70
2023-02-05T07:52:42.516Z,0.80
2023-02-05T07:55:11.204Z,0.60
2023-02-05T07:57:40.630Z,0.60
2023-02-05T08:00:10.068Z,0.70
2023-02-05T08:02:41.710Z,0.63
2023-02-05T08:05:10.696Z,0.75
2023-02-05T08:07:39.872Z,0.70
2023-02-05T08:10:10.429Z,0.80
2023-02-05T08:12:39.566Z,0.70
2023-02-05T08:15:08.961Z,0.75
2023-02-05T08:17:37.648Z,0.80
2023-02-05T08:20:08.061Z,0.80
2023-02-05T08:22:37.714Z,0.90
2023-02-05T08:25:09.752Z,0.70
2023-02-05T08:27:40.645Z,0.93
2023-02-05T08:30:10.837Z,0.88
2023-02-05T08:32:39.703Z,0.90
2023-02-05T08:35:08.977Z,0.60
2023-02-05T08:37:37.824Z,0.98
2023-02-05T08:40:06.663Z,1.05
2023-02-05T08:42:35.318Z,1.10
2023-02-05T08:45:08.977Z,0.77
2023-02-05T08:47:37.872Z,0.75
2023-02-05T08:50:07.321Z,1.05
2023-02-05T08:52:38.402Z,0.90
2023-02-05T08:55:07.569Z,0.70
2023-02-05T08:57:36.553Z,0.90
2023-02-05T09:00:07.366Z,0.60
2023-02-05T09:02:36.169Z,1.00
2023-02-05T09:05:09.270Z,0.90
2023-02-05T09:07:38.953Z,0.88
2023-02-05T09:10:08.351Z,0.93
2023-02-05T09:12:37.035Z,0.85
2023-02-05T09:15:07.323Z,0.80
2023-02-05T09:17:36.120Z,1.00
2023-02-05T09:20:05.607Z,1.10
2023-02-05T09:22:34.364Z,1.17
2023-02-05T09:25:03.080Z,0.70
2023-02-05T09:27:31.777Z,1.00
2023-02-05T09:30:00.619Z,1.33
2023-02-05T09:32:30.842Z,0.95
2023-02-05T09:34:59.698Z,0.70
2023-02-05T09:37:28.424Z,0.80
2023-02-05T09:40:20.667Z,0.75
2023-02-05T09:42:47.962Z,0.70
2023-02-05T09:45:23.703Z,0.98
2023-02-05T09:47:58.014Z,0.90
2023-02-05T09:50:29.954Z,0.90
2023-02-05T09:53:01.441Z,0.90
2023-02-05T09:55:32.141Z,0.77
2023-02-05T09:58:02.660Z,0.70
2023-02-05T10:00:33.633Z,0.65
2023-02-05T10:03:10.456Z,0.80
2023-02-05T10:05:47.239Z,0.80
2023-02-05T10:08:20.455Z,0.75
2023-02-05T10:10:51.157Z,0.98
2023-02-05T10:13:31.123Z,0.73
2023-02-05T10:16:20.185Z,0.95
2023-02-05T10:18:59.486Z,0.70
2023-02-05T10:21:34.688Z,0.90
2023-02-05T10:24:18.528Z,0.70
2023-02-05T10:26:50.605Z,0.90
2023-02-05T10:29:27.034Z,0.80
2023-02-05T10:32:05.872Z,0.68
2023-02-05T10:34:44.894Z,0.90
2023-02-05T10:37:15.191Z,0.70
2023-02-05T10:39:44.516Z,0.80
2023-02-05T10:42:20.005Z,0.95
2023-02-05T10:44:49.322Z,0.80
2023-02-05T10:47:20.613Z,0.82
2023-02-05T10:49:55.372Z,0.90
2023-02-05T10:52:24.942Z,0.90
2023-02-05T10:54:58.830Z,0.73
2023-02-05T10:57:30.572Z,0.70
2023-02-05T11:00:01.572Z,0.73
2023-02-05T11:02:34.814Z,0.93
2023-02-05T11:05:06.153Z,0.70
2023-02-05T11:07:37.202Z,0.80
2023-02-05T11:10:15.831Z,1.02
2023-02-05T11:12:45.678Z,0.93
2023-02-05T11:15:21.995Z,0.80
2023-02-05T11:17:54.551Z,0.90
2023-02-05T11:20:29.744Z,0.98
2023-02-05T11:23:07.725Z,1.00
2023-02-05T11:25:36.894Z,1.08
2023-02-05T11:28:06.888Z,0.68
2023-02-05T11:30:52.887Z,0.73
2023-02-05T11:33:27.301Z,0.82
2023-02-05T11:36:01.147Z,1.02
2023-02-05T11:38:34.762Z,0.80
2023-02-05T11:41:05.411Z,0.95
2023-02-05T11:43:35.544Z,0.90
2023-02-05T11:46:06.121Z,1.00
2023-02-05T11:48:37.252Z,0.93
2023-02-05T11:51:08.649Z,0.93
2023-02-05T11:53:38.741Z,1.00
2023-02-05T11:56:12.098Z,0.90
2023-02-05T11:58:40.922Z,1.00
2023-02-05T12:01:26.002Z,1.20
2023-02-05T12:04:01.666Z,0.98
2023-02-05T12:06:35.614Z,1.10
2023-02-05T12:09:04.645Z,1.10
2023-02-05T12:11:52.661Z,0.90
2023-02-05T12:14:24.994Z,1.42
2023-02-05T12:16:59.198Z,1.15
2023-02-05T12:19:33.471Z,1.10
2023-02-05T12:22:07.713Z,1.20
2023-02-05T12:24:57.338Z,1.27
2023-02-05T12:27:33.539Z,1.50
2023-02-05T12:30:09.556Z,1.20
2023-02-05T12:32:42.795Z,1.30
2023-02-05T12:35:25.481Z,1.17
2023-02-05T12:38:00.146Z,1.33
2023-02-05T12:40:36.931Z,1.55
2023-02-05T12:43:10.001Z,1.30
2023-02-05T12:45:46.100Z,1.38
2023-02-05T12:48:23.865Z,1.40
2023-02-05T12:50:59.447Z,1.60
2023-02-05T12:53:41.257Z,1.30
2023-02-05T12:56:22.934Z,1.30
2023-02-05T12:58:54.443Z,1.13
2023-02-05T13:01:26.012Z,1.00
2023-02-05T13:03:56.347Z,1.10
2023-02-05T13:06:28.239Z,1.30
2023-02-05T13:09:02.995Z,1.50
2023-02-05T13:11:35.858Z,1.20
2023-02-05T13:14:08.540Z,1.20
2023-02-05T13:16:39.867Z,1.40
2023-02-05T13:19:21.198Z,1.17
2023-02-05T13:22:08.411Z,1.80
2023-02-05T13:24:58.360Z,1.27
2023-02-05T13:27:46.156Z,1.20
2023-02-05T13:30:17.495Z,1.23
2023-02-05T13:32:49.657Z,1.30
2023-02-05T13:35:18.553Z,1.63
2023-02-05T13:38:02.363Z,1.60
2023-02-05T13:40:39.323Z,1.60
2023-02-05T13:43:24.093Z,1.48
2023-02-05T13:46:10.463Z,1.73
2023-02-05T13:48:53.384Z,1.50
2023-02-05T13:51:44.284Z,1.65
2023-02-05T13:54:19.525Z,1.25
2023-02-05T13:56:57.685Z,1.17
2023-02-05T13:59:29.350Z,1.30
2023-02-05T14:02:00.533Z,1.23
2023-02-05T14:04:30.904Z,1.30
2023-02-05T14:07:01.413Z,1.42
2023-02-05T14:09:37.323Z,1.20
2023-02-05T14:12:09.437Z,1.20
2023-02-05T14:14:38.393Z,1.40
2023-02-05T14:17:23.069Z,1.20
2023-02-05T14:19:57.007Z,1.80
2023-02-05T14:22:39.450Z,1.45
2023-02-05T14:25:22.872Z,1.50
2023-02-05T14:27:55.554Z,1.50
2023-02-05T14:30:37.728Z,1.77
2023-02-05T14:33:27.080Z,1.33
2023-02-05T14:35:57.454Z,3.60
2023-02-05T14:38:27.875Z,1.80
2023-02-05T14:41:04.523Z,1.70
2023-02-05T14:43:36.616Z,1.35
2023-02-05T14:46:10.199Z,1.42
2023-02-05T14:48:41.794Z,1.67
2023-02-05T14:51:16.099Z,1.52
2023-02-05T14:53:48.254Z,1.67
2023-02-05T14:56:25.943Z,1.95
2023-02-05T14:59:00.593Z,1.77
2023-02-05T15:01:46.411Z,1.60
2023-02-05T15:04:25.617Z,1.67
2023-02-05T15:06:54.871Z,1.65
2023-02-05T15:09:26.372Z,1.52
2023-02-05T15:12:05.442Z,2.00
2023-02-05T15:14:44.647Z,1.80
2023-02-05T15:17:32.328Z,1.70
2023-02-05T15:20:04.115Z,1.58
2023-02-05T15:22:39.189Z,1.70
2023-02-05T15:25:11.863Z,2.20
2023-02-05T15:27:43.387Z,1.90
2023-02-05T15:30:18.897Z,2.10
2023-02-05T15:32:49.434Z,1.50
2023-02-05T15:35:19.427Z,1.67
2023-02-05T15:37:50.793Z,2.70
2023-02-05T15:40:23.600Z,2.03
2023-02-05T15:42:55.088Z,1.95
2023-02-05T15:45:27.234Z,1.95
2023-02-05T15:48:00.149Z,1.50
2023-02-05T15:50:29.458Z,1.77
2023-02-05T15:52:59.124Z,1.58
2023-02-05T15:55:29.176Z,2.22
2023-02-05T15:57:59.659Z,1.58
2023-02-05T16:00:31.441Z,1.55
2023-02-05T16:03:04.363Z,1.77
2023-02-05T16:05:34.099Z,2.22
2023-02-05T16:08:05.325Z,1.63
2023-02-05T16:10:35.847Z,1.88
2023-02-05T16:13:06.178Z,2.08
2023-02-05T16:15:40.609Z,1.80
2023-02-05T16:18:13.296Z,1.90
2023-02-05T16:20:44.890Z,2.20
2023-02-05T16:23:17.784Z,1.23
2023-02-05T16:25:48.047Z,1.50
2023-02-05T16:28:19.165Z,2.05
2023-02-05T16:30:50.639Z,1.85
2023-02-05T16:33:26.653Z,1.80
2023-02-05T16:35:55.939Z,2.13
2023-02-05T16:38:24.670Z,1.70
2023-02-05T16:40:54.913Z,1.80
2023-02-05T16:43:32.633Z,2.58
2023-02-05T16:46:17.360Z,2.00
2023-02-05T16:48:52.297Z,1.98
2023-02-05T16:51:32.888Z,1.80
2023-02-05T16:54:02.092Z,1.90
2023-02-05T16:56:32.083Z,1.63
2023-02-05T16:59:05.363Z,2.03
2023-02-05T17:01:37.142Z,1.70
2023-02-05T17:04:07.523Z,1.85
2023-02-05T17:06:38.550Z,2.10
2023-02-05T17:09:08.029Z,2.05
2023-02-05T17:11:38.295Z,1.83
2023-02-05T17:14:15.034Z,2.08
2023-02-05T17:16:44.127Z,2.17
2023-02-05T17:19:25.478Z,2.20
2023-02-05T17:22:12.892Z,2.08
2023-02-05T17:24:41.736Z,7.05
2023-02-05T17:27:12.494Z,3.85
2023-02-05T17:29:41.200Z,3.35
2023-02-05T17:32:14.605Z,2.83
2023-02-05T17:34:44.685Z,2.95
2023-02-05T17:37:13.600Z,2.47
2023-02-05T17:39:42.654Z,2.40
2023-02-05T17:42:19.632Z,2.30
2023-02-05T17:44:48.613Z,2.38
2023-02-05T17:47:17.558Z,2.85
2023-02-05T17:49:47.796Z,3.17
2023-02-05T17:52:16.509Z,2.60
2023-02-05T17:54:46.286Z,2.50
2023-02-05T17:57:17.204Z,2.70
2023-02-05T17:59:46.308Z,2.40
2023-02-05T18:02:15.509Z,2.20
2023-02-05T18:04:45.020Z,2.33
2023-02-05T18:07:20.177Z,3.40
2023-02-05T18:09:48.973Z,2.20
2023-02-05T18:12:17.668Z,2.25
2023-02-05T18:14:46.462Z,2.50
2023-02-05T18:17:15.120Z,2.58
2023-02-05T18:19:43.830Z,2.90
2023-02-05T18:22:12.782Z,2.33
2023-02-05T18:24:42.786Z,2.67
2023-02-05T18:27:12.165Z,2.97
2023-02-05T18:29:43.549Z,2.72
2023-02-05T18:32:12.920Z,2.33
2023-02-05T18:34:41.571Z,2.53
2023-02-05T18:37:10.305Z,2.70
2023-02-05T18:39:38.978Z,2.20
2023-02-05T18:42:09.041Z,2.45
2023-02-05T18:44:37.656Z,2.35
2023-02-05T18:47:07.194Z,2.05
2023-02-05T18:49:36.721Z,2.30
2023-02-05T18:52:12.002Z,2.33
2023-02-05T18:54:40.763Z,2.55
2023-02-05T18:57:14.735Z,2.25
2023-02-05T18:59:44.565Z,2.47
2023-02-05T19:02:13.716Z,2.55
2023-02-05T19:04:42.610Z,2.50
2023-02-05T19:07:11.473Z,2.25
2023-02-05T19:09:41.234Z,2.47
2023-02-05T19:12:11.315Z,2.17
2023-02-05T19:14:40.114Z,2.20
2023-02-05T19:17:08.770Z,2.50
2023-02-05T19:19:37.491Z,2.10
2023-02-05T19:22:18.495Z,2.20
2023-02-05T19:24:47.489Z,2.40
2023-02-05T19:27:19.723Z,2.40
2023-02-05T19:29:48.573Z,2.40
2023-02-05T19:32:17.399Z,2.22
2023-02-05T19:34:46.675Z,2.25
2023-02-05T19:37:15.418Z,2.33
2023-02-05T19:39:45.284Z,2.03
2023-02-05T19:42:14.173Z,2.35
2023-02-05T19:44:45.868Z,2.35
2023-02-05T19:47:15.892Z,2.30
2023-02-05T19:49:44.704Z,2.47
2023-02-05T19:52:13.379Z,2.10
2023-02-05T19:54:42.136Z,2.55
2023-02-05T19:57:11.017Z,2.38
2023-02-05T19:59:39.699Z,2.60
2023-02-05T20:02:10.870Z,2.40
2023-02-05T20:04:42.883Z,2.30
2023-02-05T20:07:11.601Z,2.28
2023-02-05T20:09:42.337Z,2.28
2023-02-05T20:12:12.998Z,2.63
2023-02-05T20:14:42.077Z,2.40
2023-02-05T20:17:16.360Z,2.47
2023-02-05T20:19:45.164Z,2.53
2023-02-05T20:22:13.924Z,2.38
2023-02-05T20:24:42.686Z,2.17
2023-02-05T20:27:11.350Z,2.78
2023-02-05T20:30:02.757Z,2.30
2023-02-05T20:32:49.011Z,2.17
2023-02-05T20:35:17.635Z,2.10
2023-02-05T20:37:46.418Z,2.40
2023-02-05T20:40:15.140Z,2.15
2023-02-05T20:42:43.887Z,2.63
2023-02-05T20:45:12.524Z,2.70
2023-02-05T20:47:43.030Z,2.65
2023-02-05T20:50:11.892Z,2.22
2023-02-05T20:52:40.461Z,2.47
2023-02-05T20:55:09.509Z,2.22
2023-02-05T20:57:38.203Z,2.00
2023-02-05T21:00:07.385Z,2.40
2023-02-05T21:02:36.046Z,2.13
2023-02-05T21:05:06.181Z,2.13
2023-02-05T21:07:34.802Z,2.42
2023-02-05T21:10:05.743Z,2.05
2023-02-05T21:12:34.434Z,2.38
2023-02-05T21:15:03.063Z,2.00
2023-02-05T21:17:31.817Z,1.70
2023-02-05T21:20:00.571Z,2.03
2023-02-05T21:22:30.940Z,2.20
2023-02-05T21:24:59.634Z,2.05
2023-02-05T21:27:28.302Z,2.40
2023-02-05T21:29:56.938Z,1.85
2023-02-05T21:32:25.598Z,1.83
2023-02-05T21:34:54.270Z,2.05
2023-02-05T21:37:22.910Z,1.70
2023-02-05T21:40:00.837Z,1.90
2023-02-05T21:42:36.433Z,2.00
2023-02-05T21:45:05.593Z,2.00
2023-02-05T21:47:34.220Z,1.52
2023-02-05T21:50:02.910Z,1.63
2023-02-05T21:52:31.774Z,1.80
2023-02-05T21:55:01.834Z,2.22
2023-02-05T21:57:30.535Z,1.73
2023-02-05T21:59:59.643Z,1.92
2023-02-05T22:02:28.359Z,1.80
2023-02-05T22:04:57.088Z,1.90
2023-02-05T22:07:26.598Z,1.95
2023-02-05T22:09:55.291Z,1.90
2023-02-05T22:12:25.473Z,1.90
2023-02-05T22:14:54.212Z,1.70
2023-02-05T22:17:24.628Z,1.90
2023-02-05T22:19:54.826Z,1.92
2023-02-05T22:22:23.575Z,2.05
2023-02-05T22:24:53.277Z,1.98
2023-02-05T22:27:24.979Z,1.65
2023-02-05T22:29:55.747Z,1.80
2023-02-05T22:32:24.437Z,1.77
2023-02-05T22:34:54.901Z,2.00
2023-02-05T22:37:23.618Z,1.63
2023-02-05T22:39:52.324Z,1.98
2023-02-05T22:42:21.078Z,1.60
2023-02-05T22:44:49.870Z,1.70
2023-02-05T22:47:19.958Z,1.50
2023-02-05T22:49:48.684Z,1.80
2023-02-05T22:52:17.304Z,1.42
2023-02-05T22:54:46.046Z,1.40
2023-02-05T22:57:14.679Z,1.55
2023-02-05T22:59:43.295Z,2.00
2023-02-05T23:02:11.955Z,1.80
2023-02-05T23:04:42.046Z,1.30
2023-02-05T23:07:10.810Z,1.67
2023-02-05T23:09:39.471Z,1.23
2023-02-05T23:12:08.585Z,1.63
2023-02-05T23:14:37.502Z,1.40
2023-02-05T23:17:06.226Z,1.70
2023-02-05T23:19:34.857Z,1.73
2023-02-05T23:22:09.642Z,1.42
2023-02-05T23:24:38.661Z,1.52
2023-02-05T23:27:07.332Z,1.30
2023-02-05T23:29:36.947Z,1.30
2023-02-05T23:32:06.686Z,1.10
2023-02-05T23:34:35.436Z,1.38
2023-02-05T23:37:05.430Z,1.10
2023-02-05T23:39:34.042Z,1.40
2023-02-05T23:42:02.708Z,1.10
2023-02-05T23:44:31.325Z,1.20
2023-02-05T23:46:59.966Z,1.10
2023-02-05T23:49:28.687Z,1.55
2023-02-05T23:51:57.646Z,1.42
2023-02-05T23:54:27.731Z,1.20
2023-02-05T23:56:56.924Z,1.10
2023-02-05T23:59:28.082Z,1.08
